createdAt,value
2019-03-25T00:00:52.449Z,4.97
2019-03-25T00:03:20.712Z,4.96
2019-03-25T00:05:48.968Z,5.00
2019-03-25T00:08:17.239Z,4.98
2019-03-25T00:10:45.508Z,5.05
2019-03-25T00:13:13.777Z,5.02
2019-03-25T00:15:42.035Z,5.07
2019-03-25T00:18:10.287Z,5.01
2019-03-25T00:20:38.592Z,5.02
2019-03-25T00:23:06.861Z,4.93
2019-03-25T00:25:35.124Z,4.83
2019-03-25T00:28:03.381Z,4.75
2019-03-25T00:30:31.639Z,4.72
2019-03-25T00:32:59.896Z,4.72
2019-03-25T00:35:28.158Z,4.72
2019-03-25T00:37:56.431Z,4.75
2019-03-25T00:40:24.707Z,4.76
2019-03-25T00:42:52.966Z,4.80
2019-03-25T00:45:21.220Z,4.81
2019-03-25T00:47:49.490Z,4.75
2019-03-25T00:50:17.748Z,4.63
2019-03-25T00:52:46.003Z,4.44
2019-03-25T00:55:14.282Z,4.40
2019-03-25T00:57:42.574Z,4.36
2019-03-25T01:00:42.254Z,4.27
2019-03-25T01:03:10.523Z,4.21
2019-03-25T01:05:38.801Z,4.27
2019-03-25T01:08:07.077Z,4.27
2019-03-25T01:10:35.346Z,4.23
2019-03-25T01:13:03.619Z,4.22
2019-03-25T01:15:31.900Z,4.13
2019-03-25T01:18:00.185Z,4.10
2019-03-25T01:20:28.530Z,4.06
2019-03-25T01:22:56.905Z,4.08
2019-03-25T01:25:25.165Z,4.06
2019-03-25T01:27:53.469Z,4.13
2019-03-25T01:30:21.750Z,4.16
2019-03-25T01:32:50.032Z,4.15
2019-03-25T01:35:18.300Z,4.09
2019-03-25T01:37:46.569Z,4.11
2019-03-25T01:40:14.980Z,4.09
2019-03-25T01:42:43.248Z,4.12
2019-03-25T01:45:11.513Z,4.12
2019-03-25T01:47:39.798Z,4.09
2019-03-25T01:50:08.137Z,4.09
2019-03-25T01:52:36.416Z,4.10
2019-03-25T01:55:36.302Z,4.09
2019-03-25T01:58:04.665Z,4.13
2019-03-25T02:00:32.927Z,4.12
2019-03-25T02:03:01.218Z,4.15
2019-03-25T02:05:29.486Z,4.11
2019-03-25T02:07:57.758Z,4.15
2019-03-25T02:10:26.029Z,4.23
2019-03-25T02:12:54.301Z,4.21
2019-03-25T02:15:22.582Z,4.20
2019-03-25T02:17:50.823Z,4.24
2019-03-25T02:20:26.480Z,4.21
2019-03-25T02:22:49.120Z,4.22
2019-03-25T02:25:25.496Z,4.16
2019-03-25T02:27:47.422Z,4.10
2019-03-25T02:30:47.691Z,4.13
2019-03-25T02:33:15.979Z,4.15
2019-03-25T02:35:44.290Z,4.17
2019-03-25T02:38:12.511Z,4.19
2019-03-25T02:40:40.767Z,4.16
2019-03-25T02:43:09.038Z,4.10
2019-03-25T02:45:37.299Z,4.11
2019-03-25T02:48:05.573Z,4.09
2019-03-25T02:50:33.830Z,4.14
2019-03-25T02:53:02.089Z,4.19
2019-03-25T02:55:41.259Z,4.10
2019-03-25T02:58:00.333Z,4.11
2019-03-25T03:00:47.938Z,4.10
2019-03-25T03:03:16.204Z,4.17
2019-03-25T03:05:44.465Z,4.16
2019-03-25T03:08:12.730Z,4.12
2019-03-25T03:10:40.985Z,4.07
2019-03-25T03:13:09.282Z,4.06
2019-03-25T03:15:37.536Z,4.07
2019-03-25T03:18:05.800Z,4.10
2019-03-25T03:20:34.069Z,4.16
2019-03-25T03:23:02.339Z,4.10
2019-03-25T03:25:30.587Z,4.03
2019-03-25T03:27:58.859Z,4.00
2019-03-25T03:30:27.132Z,3.92
2019-03-25T03:32:55.439Z,3.78
2019-03-25T03:35:23.692Z,3.90
2019-03-25T03:37:51.936Z,3.85
2019-03-25T03:40:20.192Z,3.89
2019-03-25T03:42:48.535Z,3.88
2019-03-25T03:45:48.081Z,3.91
2019-03-25T03:48:16.349Z,3.96
2019-03-25T03:50:44.612Z,3.94
2019-03-25T03:53:12.896Z,3.98
2019-03-25T03:55:41.162Z,3.94
2019-03-25T03:58:41.317Z,3.97
2019-03-25T04:01:09.574Z,3.96
2019-03-25T04:03:38.852Z,4.09
2019-03-25T04:06:07.110Z,4.10
2019-03-25T04:08:35.389Z,4.05
2019-03-25T04:11:03.724Z,4.04
2019-03-25T04:13:31.993Z,3.79
2019-03-25T04:16:01.660Z,3.34
2019-03-25T04:18:30.271Z,3.20
2019-03-25T04:20:58.523Z,3.20
2019-03-25T04:23:26.799Z,3.25
2019-03-25T04:25:55.070Z,3.35
2019-03-25T04:28:23.332Z,3.20
2019-03-25T04:30:51.700Z,3.13
2019-03-25T04:33:19.949Z,3.19
2019-03-25T04:35:48.208Z,3.16
2019-03-25T04:38:16.518Z,3.28
2019-03-25T04:41:16.607Z,3.19
2019-03-25T04:43:44.905Z,3.17
2019-03-25T04:46:13.183Z,3.08
2019-03-25T04:48:41.469Z,3.04
2019-03-25T04:51:09.745Z,3.06
2019-03-25T04:53:38.864Z,3.08
2019-03-25T04:56:07.126Z,3.11
2019-03-25T04:58:35.399Z,3.06
2019-03-25T05:01:03.665Z,3.07
2019-03-25T05:03:31.934Z,3.03
2019-03-25T05:06:00.219Z,3.03
2019-03-25T05:08:28.489Z,3.09
2019-03-25T05:10:56.770Z,3.15
2019-03-25T05:13:25.046Z,3.20
2019-03-25T05:15:53.323Z,3.27
2019-03-25T05:18:21.594Z,3.25
2019-03-25T05:20:49.872Z,3.40
2019-03-25T05:23:18.131Z,3.39
2019-03-25T05:25:46.416Z,3.43
2019-03-25T05:28:14.681Z,3.41
2019-03-25T05:30:42.944Z,3.35
2019-03-25T05:33:11.231Z,3.42
2019-03-25T05:35:39.504Z,3.43
2019-03-25T05:38:07.770Z,3.42
2019-03-25T05:40:36.028Z,3.41
2019-03-25T05:43:04.321Z,3.51
2019-03-25T05:45:32.590Z,3.44
2019-03-25T05:48:00.889Z,3.61
2019-03-25T05:50:29.139Z,3.62
2019-03-25T05:52:57.408Z,3.55
2019-03-25T05:55:25.671Z,3.62
2019-03-25T05:57:53.940Z,3.60
2019-03-25T06:03:11.171Z,3.60
2019-03-25T06:05:39.419Z,3.51
2019-03-25T06:08:07.684Z,3.39
2019-03-25T06:10:35.958Z,3.41
2019-03-25T06:13:04.228Z,3.27
2019-03-25T06:15:32.482Z,3.19
2019-03-25T06:18:00.744Z,3.20
2019-03-25T06:20:29.017Z,3.18
2019-03-25T06:22:57.281Z,3.21
2019-03-25T06:25:25.545Z,3.22
2019-03-25T06:27:53.812Z,3.19
2019-03-25T06:30:22.139Z,3.13
2019-03-25T06:32:50.413Z,3.16
2019-03-25T06:35:18.662Z,3.14
2019-03-25T06:37:46.956Z,3.19
2019-03-25T06:40:15.275Z,3.28
2019-03-25T06:42:43.532Z,3.28
2019-03-25T06:48:31.639Z,3.36
2019-03-25T06:50:59.901Z,3.35
2019-03-25T06:53:28.158Z,3.50
2019-03-25T06:55:56.439Z,3.70
2019-03-25T06:58:24.697Z,3.69
2019-03-25T07:00:52.950Z,3.85
2019-03-25T07:03:21.226Z,3.94
2019-03-25T07:05:49.551Z,4.18
2019-03-25T07:08:37.181Z,4.21
2019-03-25T07:11:05.450Z,4.21
2019-03-25T07:14:05.366Z,4.05
2019-03-25T07:16:33.648Z,3.89
2019-03-25T07:19:01.894Z,3.94
2019-03-25T07:21:30.166Z,3.70
2019-03-25T07:23:58.446Z,3.85
2019-03-25T07:26:26.748Z,3.78
2019-03-25T07:28:55.007Z,3.85
2019-03-25T07:31:23.286Z,3.86
2019-03-25T07:33:51.550Z,3.91
2019-03-25T07:36:19.807Z,3.98
2019-03-25T07:38:48.076Z,4.03
2019-03-25T07:41:27.545Z,4.06
2019-03-25T07:43:55.810Z,4.19
2019-03-25T07:46:24.078Z,4.07
2019-03-25T07:48:52.368Z,4.03
2019-03-25T07:51:20.646Z,4.09
2019-03-25T07:53:50.971Z,4.10
2019-03-25T07:56:18.925Z,4.15
2019-03-25T07:58:47.233Z,4.09
2019-03-25T08:01:15.468Z,4.07
2019-03-25T08:03:43.742Z,4.16
2019-03-25T08:09:10.135Z,4.27
2019-03-25T08:11:38.403Z,4.30
2019-03-25T08:14:06.678Z,4.37
2019-03-25T08:16:34.929Z,4.50
2019-03-25T08:19:03.197Z,4.46
2019-03-25T08:21:31.454Z,4.43
2019-03-25T08:23:59.721Z,4.31
2019-03-25T08:26:27.972Z,4.31
2019-03-25T08:28:56.256Z,4.23
2019-03-25T08:31:24.521Z,4.03
2019-03-25T08:33:52.801Z,4.10
2019-03-25T08:36:21.061Z,4.11
2019-03-25T08:38:49.347Z,4.27
2019-03-25T08:41:17.602Z,4.22
2019-03-25T08:43:45.876Z,4.02
2019-03-25T08:46:14.152Z,3.94
2019-03-25T08:48:42.422Z,4.04
2019-03-25T08:54:08.735Z,3.95
2019-03-25T08:56:37.017Z,4.00
2019-03-25T08:59:05.291Z,4.01
2019-03-25T09:01:33.558Z,4.19
2019-03-25T09:04:01.837Z,4.15
2019-03-25T09:06:30.139Z,4.06
2019-03-25T09:08:58.417Z,3.96
2019-03-25T09:11:26.683Z,4.04
2019-03-25T09:13:54.944Z,4.10
2019-03-25T09:16:23.211Z,4.08
2019-03-25T09:18:51.489Z,4.10
2019-03-25T09:21:19.752Z,4.09
2019-03-25T09:23:48.018Z,4.06
2019-03-25T09:26:16.281Z,4.03
2019-03-25T09:28:44.546Z,4.05
2019-03-25T09:34:32.658Z,3.80
2019-03-25T09:37:00.926Z,3.64
2019-03-25T09:39:29.213Z,3.58
2019-03-25T09:41:57.454Z,3.53
2019-03-25T09:44:25.705Z,3.63
2019-03-25T09:46:53.972Z,3.58
2019-03-25T09:49:22.241Z,3.58
2019-03-25T09:51:52.783Z,3.47
2019-03-25T09:54:20.509Z,3.61
2019-03-25T09:56:48.784Z,3.87
2019-03-25T09:59:17.064Z,4.00
2019-03-25T10:01:45.334Z,4.23
2019-03-25T10:04:13.588Z,4.40
2019-03-25T10:07:01.227Z,4.49
2019-03-25T10:09:29.495Z,4.21
2019-03-25T10:12:10.486Z,4.78
2019-03-25T10:14:38.752Z,4.78
2019-03-25T10:17:07.003Z,5.10
2019-03-25T10:19:35.269Z,5.22
2019-03-25T10:22:03.535Z,5.22
2019-03-25T10:24:31.790Z,5.35
2019-03-25T10:27:00.069Z,5.33
2019-03-25T10:29:28.841Z,5.51
2019-03-25T10:31:57.133Z,5.57
2019-03-25T10:37:26.533Z,5.97
2019-03-25T10:39:54.809Z,5.99
2019-03-25T10:42:23.072Z,6.07
2019-03-25T10:44:51.362Z,6.06
2019-03-25T10:47:19.622Z,6.19
2019-03-25T10:49:47.904Z,6.15
2019-03-25T10:52:16.170Z,6.17
2019-03-25T10:54:44.547Z,6.20
2019-03-25T10:57:14.413Z,6.16
2019-03-25T10:59:42.731Z,6.23
2019-03-25T11:02:11.006Z,6.42
2019-03-25T11:04:39.265Z,6.85
2019-03-25T11:07:07.541Z,7.21
2019-03-25T11:09:35.784Z,7.31
2019-03-25T11:12:04.060Z,7.41
2019-03-25T11:14:32.318Z,7.36
2019-03-25T11:17:00.576Z,7.32
2019-03-25T11:19:28.855Z,7.17
2019-03-25T11:21:57.129Z,7.12
2019-03-25T11:24:25.405Z,7.40
2019-03-25T11:26:53.673Z,7.56
2019-03-25T11:29:22.064Z,7.92
2019-03-25T11:31:50.319Z,8.07
2019-03-25T11:34:37.947Z,8.10
2019-03-25T11:37:06.216Z,8.10
2019-03-25T11:39:34.490Z,7.78
2019-03-25T11:42:02.754Z,7.77
2019-03-25T11:44:31.040Z,7.56
2019-03-25T11:46:59.306Z,7.38
2019-03-25T11:49:27.805Z,6.91
2019-03-25T11:51:56.084Z,6.24
2019-03-25T11:54:24.355Z,5.91
2019-03-25T11:56:52.622Z,5.54
2019-03-25T11:59:20.903Z,5.95
2019-03-25T12:01:49.186Z,6.34
2019-03-25T12:04:17.441Z,6.52
2019-03-25T12:06:45.744Z,6.77
2019-03-25T12:09:13.985Z,6.87
2019-03-25T12:11:42.242Z,6.97
2019-03-25T12:14:10.496Z,6.91
2019-03-25T12:16:38.767Z,6.72
2019-03-25T12:19:07.024Z,6.88
2019-03-25T12:21:35.285Z,6.77
2019-03-25T12:24:03.620Z,6.75
2019-03-25T12:26:31.879Z,6.66
2019-03-25T12:29:00.137Z,6.50
2019-03-25T12:31:28.401Z,6.44
2019-03-25T12:33:56.666Z,6.55
2019-03-25T12:36:24.977Z,6.47
2019-03-25T12:38:53.317Z,6.51
2019-03-25T12:41:21.580Z,6.38
2019-03-25T12:43:49.863Z,6.56
2019-03-25T12:46:18.130Z,6.78
2019-03-25T12:48:46.400Z,7.09
2019-03-25T12:51:14.650Z,7.28
2019-03-25T12:53:43.186Z,7.47
2019-03-25T12:56:11.445Z,7.79
2019-03-25T12:58:39.707Z,7.64
2019-03-25T13:01:07.975Z,7.66
2019-03-25T13:03:36.237Z,7.88
2019-03-25T13:06:04.565Z,8.00
2019-03-25T13:08:33.621Z,7.69
2019-03-25T13:11:02.850Z,7.88
2019-03-25T13:13:31.112Z,7.72
2019-03-25T13:15:59.365Z,7.23
2019-03-25T13:18:27.644Z,6.70
2019-03-25T13:20:55.892Z,6.67
2019-03-25T13:26:32.186Z,6.57
2019-03-25T13:29:53.901Z,6.63
2019-03-25T13:33:04.294Z,6.65
2019-03-25T13:35:33.042Z,6.46
2019-03-25T13:38:01.311Z,6.55
2019-03-25T13:40:29.581Z,6.82
2019-03-25T13:42:58.796Z,7.09
2019-03-25T13:45:27.068Z,7.27
2019-03-25T13:47:55.334Z,7.54
2019-03-25T13:50:23.586Z,7.32
2019-03-25T13:52:51.877Z,7.40
2019-03-25T13:55:20.160Z,7.72
2019-03-25T13:57:48.439Z,7.83
2019-03-25T14:00:48.523Z,7.60
2019-03-25T14:03:16.796Z,7.88
2019-03-25T14:05:45.060Z,7.88
2019-03-25T14:08:13.348Z,8.14
2019-03-25T14:10:41.599Z,7.97
2019-03-25T14:13:09.871Z,7.84
2019-03-25T14:15:38.144Z,7.23
2019-03-25T14:18:06.485Z,7.27
2019-03-25T14:20:34.803Z,7.22
2019-03-25T14:23:03.086Z,7.47
2019-03-25T14:25:31.376Z,7.58
2019-03-25T14:27:59.615Z,7.49
2019-03-25T14:30:27.963Z,7.78
2019-03-25T14:32:56.237Z,7.86
2019-03-25T14:35:24.518Z,7.75
2019-03-25T14:37:52.795Z,7.90
2019-03-25T14:40:21.049Z,7.79
2019-03-25T14:42:49.322Z,7.87
2019-03-25T14:45:26.138Z,8.17
2019-03-25T14:47:47.572Z,8.46
2019-03-25T14:50:15.993Z,8.40
2019-03-25T14:52:55.046Z,8.12
2019-03-25T14:55:23.331Z,8.12
2019-03-25T14:57:51.573Z,8.08
2019-03-25T15:00:25.110Z,8.27
2019-03-25T15:02:49.832Z,8.36
2019-03-25T15:05:18.109Z,8.68
2019-03-25T15:07:46.412Z,8.64
2019-03-25T15:10:53.505Z,8.75
2019-03-25T15:13:16.089Z,8.68
2019-03-25T15:15:44.375Z,8.39
2019-03-25T15:18:15.838Z,8.44
2019-03-25T15:20:42.630Z,8.58
2019-03-25T15:23:31.419Z,8.64
2019-03-25T15:26:00.081Z,8.48
2019-03-25T15:28:28.410Z,8.31
2019-03-25T15:30:56.683Z,8.25
2019-03-25T15:33:24.936Z,8.22
2019-03-25T15:35:53.183Z,8.12
2019-03-25T15:38:21.445Z,8.01
2019-03-25T15:40:49.703Z,8.03
2019-03-25T15:43:18.003Z,8.09
2019-03-25T15:45:46.267Z,8.01
2019-03-25T15:48:14.519Z,7.92
2019-03-25T15:50:42.784Z,7.91
2019-03-25T15:53:11.044Z,7.89
2019-03-25T15:55:39.307Z,8.09
2019-03-25T15:58:07.575Z,8.08
2019-03-25T16:00:46.645Z,8.00
2019-03-25T16:03:05.827Z,8.02
2019-03-25T16:05:34.322Z,7.96
2019-03-25T16:08:02.583Z,7.92
2019-03-25T16:10:31.434Z,7.85
2019-03-25T16:12:59.756Z,7.80
2019-03-25T16:15:47.368Z,7.71
2019-03-25T16:21:35.573Z,7.74
2019-03-25T16:24:03.842Z,7.66
2019-03-25T16:26:32.135Z,7.69
2019-03-25T16:29:00.413Z,7.70
2019-03-25T16:31:28.660Z,7.75
2019-03-25T16:33:56.911Z,7.69
2019-03-25T16:36:25.173Z,7.68
2019-03-25T16:38:53.458Z,7.67
2019-03-25T16:41:21.722Z,7.69
2019-03-25T16:43:49.988Z,7.70
2019-03-25T16:46:18.412Z,7.69
2019-03-25T16:48:46.662Z,7.66
2019-03-25T16:51:14.931Z,7.62
2019-03-25T16:53:43.414Z,7.58
2019-03-25T16:56:11.675Z,7.60
2019-03-25T16:58:39.955Z,7.57
2019-03-25T17:01:10.222Z,7.56
2019-03-25T17:03:38.976Z,7.58
2019-03-25T17:06:07.255Z,7.55
2019-03-25T17:08:35.522Z,7.53
2019-03-25T17:11:03.835Z,7.52
2019-03-25T17:16:12.038Z,7.48
2019-03-25T17:18:40.326Z,7.43
2019-03-25T17:21:08.597Z,7.46
2019-03-25T17:23:36.873Z,7.39
2019-03-25T17:26:05.127Z,7.41
2019-03-25T17:28:33.413Z,7.39
2019-03-25T17:31:03.118Z,7.28
2019-03-25T17:33:31.654Z,7.25
2019-03-25T17:35:59.921Z,7.21
2019-03-25T17:38:28.172Z,7.14
2019-03-25T17:40:56.444Z,7.06
2019-03-25T17:43:24.707Z,7.03
2019-03-25T17:45:52.980Z,7.06
2019-03-25T17:48:21.237Z,7.01
2019-03-25T17:50:49.515Z,6.89
2019-03-25T17:53:17.778Z,6.94
2019-03-25T17:55:46.050Z,6.86
2019-03-25T17:58:14.300Z,6.86
2019-03-25T18:03:41.546Z,6.67
2019-03-25T18:06:09.805Z,6.62
2019-03-25T18:08:38.124Z,6.61
2019-03-25T18:11:06.331Z,6.61
2019-03-25T18:13:34.603Z,6.27
2019-03-25T18:16:02.933Z,6.17
2019-03-25T18:18:31.225Z,6.09
2019-03-25T18:20:59.476Z,6.04
2019-03-25T18:23:27.748Z,5.93
2019-03-25T18:25:55.998Z,5.92
2019-03-25T18:28:24.271Z,5.88
2019-03-25T18:30:52.544Z,5.86
2019-03-25T18:33:20.811Z,5.84
2019-03-25T18:35:49.082Z,5.81
2019-03-25T18:38:17.346Z,5.78
2019-03-25T18:40:45.620Z,5.77
2019-03-25T18:43:13.879Z,5.76
2019-03-25T18:45:42.152Z,5.77
2019-03-25T18:48:10.422Z,5.72
2019-03-25T18:50:38.693Z,5.67
2019-03-25T18:53:06.950Z,5.68
2019-03-25T18:55:35.203Z,5.48
2019-03-25T18:58:03.459Z,5.49
2019-03-25T19:00:51.088Z,5.49
2019-03-25T19:03:19.387Z,5.46
2019-03-25T19:05:47.627Z,5.42
2019-03-25T19:08:15.906Z,5.48
2019-03-25T19:10:44.191Z,5.52
2019-03-25T19:13:12.445Z,5.50
2019-03-25T19:15:40.731Z,5.42
2019-03-25T19:18:08.990Z,5.36
2019-03-25T19:20:37.257Z,5.19
2019-03-25T19:23:05.497Z,5.04
2019-03-25T19:25:33.814Z,5.02
2019-03-25T19:28:02.099Z,5.08
2019-03-25T19:30:30.346Z,5.08
2019-03-25T19:32:58.669Z,5.03
2019-03-25T19:35:29.750Z,4.95
2019-03-25T19:37:56.951Z,4.89
2019-03-25T19:40:25.210Z,4.81
2019-03-25T19:42:53.489Z,4.73
2019-03-25T19:45:21.800Z,4.69
2019-03-25T19:47:50.096Z,4.70
2019-03-25T19:53:39.057Z,4.66
2019-03-25T19:56:07.356Z,4.71
2019-03-25T19:58:35.741Z,4.66
2019-03-25T20:01:03.983Z,4.60
2019-03-25T20:03:33.080Z,4.61
2019-03-25T20:06:02.256Z,4.60
2019-03-25T20:08:43.127Z,4.32
2019-03-25T20:11:11.428Z,4.32
2019-03-25T20:13:39.710Z,4.37
2019-03-25T20:16:08.011Z,4.37
2019-03-25T20:18:36.326Z,4.41
2019-03-25T20:21:04.631Z,4.26
2019-03-25T20:23:32.888Z,4.20
2019-03-25T20:26:01.231Z,4.14
2019-03-25T20:28:29.620Z,4.10
2019-03-25T20:30:57.857Z,4.09
2019-03-25T20:33:26.124Z,4.09
2019-03-25T20:35:54.412Z,3.96
2019-03-25T20:38:22.657Z,4.01
2019-03-25T20:40:50.956Z,4.00
2019-03-25T20:43:19.196Z,3.94
2019-03-25T20:45:47.762Z,3.93
2019-03-25T20:48:16.009Z,3.85
2019-03-25T20:50:44.321Z,3.77
2019-03-25T20:53:12.631Z,3.64
2019-03-25T20:55:40.903Z,3.67
2019-03-25T20:58:09.171Z,3.64
2019-03-25T21:00:56.786Z,3.60
2019-03-25T21:03:25.053Z,3.59
2019-03-25T21:05:53.309Z,3.53
2019-03-25T21:08:21.574Z,3.57
2019-03-25T21:10:49.929Z,3.64
2019-03-25T21:13:18.291Z,3.76
2019-03-25T21:15:46.618Z,3.80
2019-03-25T21:18:14.902Z,3.79
2019-03-25T21:20:43.185Z,3.80
2019-03-25T21:23:11.570Z,3.76
2019-03-25T21:25:39.862Z,3.47
2019-03-25T21:28:08.058Z,3.37
2019-03-25T21:30:47.279Z,3.45
2019-03-25T21:33:06.520Z,3.55
2019-03-25T21:35:34.786Z,3.59
2019-03-25T21:38:03.021Z,3.67
2019-03-25T21:40:31.271Z,3.79
2019-03-25T21:42:59.535Z,3.89
2019-03-25T21:45:27.830Z,4.02
2019-03-25T21:47:56.169Z,4.05
2019-03-25T21:50:24.446Z,4.08
2019-03-25T21:52:52.709Z,4.13
2019-03-25T21:55:20.986Z,4.20
2019-03-25T21:57:49.314Z,4.27
2019-03-25T22:00:17.736Z,4.30
2019-03-25T22:02:46.009Z,4.38
2019-03-25T22:05:14.288Z,4.40
2019-03-25T22:07:42.568Z,4.39
2019-03-25T22:10:43.164Z,4.47
2019-03-25T22:13:11.582Z,4.47
2019-03-25T22:15:39.859Z,4.47
2019-03-25T22:18:08.135Z,4.42
2019-03-25T22:20:36.389Z,4.47
2019-03-25T22:23:04.673Z,4.41
2019-03-25T22:25:32.949Z,4.33
2019-03-25T22:28:01.227Z,4.34
2019-03-25T22:30:29.499Z,4.39
2019-03-25T22:32:57.771Z,4.37
2019-03-25T22:35:26.023Z,4.34
2019-03-25T22:37:54.313Z,4.28
2019-03-25T22:40:22.600Z,4.31
2019-03-25T22:42:50.867Z,4.31
2019-03-25T22:45:59.167Z,4.30
2019-03-25T22:48:27.439Z,4.26
2019-03-25T22:50:55.687Z,4.11
2019-03-25T22:53:23.969Z,4.06
2019-03-25T22:55:52.256Z,3.95
2019-03-25T22:58:20.570Z,3.98
2019-03-25T23:00:48.853Z,3.89
2019-03-25T23:03:17.125Z,3.90
2019-03-25T23:05:45.468Z,3.85
2019-03-25T23:08:13.731Z,3.83
2019-03-25T23:10:41.993Z,3.80
2019-03-25T23:13:10.269Z,3.72
2019-03-25T23:15:38.536Z,3.61
2019-03-25T23:18:06.871Z,3.56
2019-03-25T23:20:35.146Z,3.55
2019-03-25T23:23:03.410Z,3.51
2019-03-25T23:25:31.683Z,3.54
2019-03-25T23:27:59.970Z,3.56
2019-03-25T23:30:28.247Z,3.59
2019-03-25T23:32:56.506Z,3.51
2019-03-25T23:35:24.786Z,3.56
2019-03-25T23:37:53.059Z,3.53
2019-03-25T23:40:21.355Z,3.57
2019-03-25T23:42:50.237Z,3.42
2019-03-25T23:45:18.527Z,3.44
2019-03-25T23:47:46.808Z,3.39
2019-03-25T23:50:15.066Z,3.37
2019-03-25T23:52:43.454Z,3.31
2019-03-25T23:55:11.710Z,3.37
2019-03-25T23:57:40.005Z,3.35
